Terminal Aerodrome Forecast
Issued by NWS Mt. Holly, NJ

Home | Current Version | Previous Version | Text Only | Print | Product List | Glossary On
Versions: 1 2 3 4 5 6 7 8 9 10 11 12 13 14 15 16 17 18
000
FTUS41 KPHI 301136
TAFABE
TAF
KABE 301136Z 3012/3112 VRB03KT P6SM VCSH BKN010 OVC025
     FM301300 25005KT P6SM OVC015
     FM301600 22005KT P6SM VCSH OVC030
     FM301900 20006KT P6SM BKN250
     FM310200 VRB03KT 4SM BR SCT015 BKN250=

USA.gov is the U.S. government's official web portal to all federal, state and local government web resources and services.